sensor_id;sensor_type;location;lat;lon;timestamp;temperature;humidity
80220;DHT22;76726;42.134;24.748;2024-02-26T00:02:24;12.80;65.90
80220;DHT22;76726;42.134;24.748;2024-02-26T00:04:50;12.80;65.90
80220;DHT22;76726;42.134;24.748;2024-02-26T00:07:16;12.90;65.30
80220;DHT22;76726;42.134;24.748;2024-02-26T00:09:42;12.90;64.80
80220;DHT22;76726;42.134;24.748;2024-02-26T00:12:08;13.00;64.70
80220;DHT22;76726;42.134;24.748;2024-02-26T00:14:34;12.90;64.60
80220;DHT22;76726;42.134;24.748;2024-02-26T00:17:00;13.00;64.50
80220;DHT22;76726;42.134;24.748;2024-02-26T00:19:26;13.00;64.60
80220;DHT22;76726;42.134;24.748;2024-02-26T00:21:52;13.00;64.60
80220;DHT22;76726;42.134;24.748;2024-02-26T00:24:19;13.00;64.30
80220;DHT22;76726;42.134;24.748;2024-02-26T00:26:45;13.10;64.00
80220;DHT22;76726;42.134;24.748;2024-02-26T00:29:11;13.10;63.90
80220;DHT22;76726;42.134;24.748;2024-02-26T00:31:37;13.00;64.00
80220;DHT22;76726;42.134;24.748;2024-02-26T00:34:03;12.90;64.60
80220;DHT22;76726;42.134;24.748;2024-02-26T00:36:29;12.90;64.40
80220;DHT22;76726;42.134;24.748;2024-02-26T00:38:55;13.00;64.20
80220;DHT22;76726;42.134;24.748;2024-02-26T00:41:21;13.00;64.20
80220;DHT22;76726;42.134;24.748;2024-02-26T00:43:47;13.00;64.40
80220;DHT22;76726;42.134;24.748;2024-02-26T00:46:13;13.00;64.00
80220;DHT22;76726;42.134;24.748;2024-02-26T00:48:39;13.10;63.80
80220;DHT22;76726;42.134;24.748;2024-02-26T00:51:05;12.70;64.50
80220;DHT22;76726;42.134;24.748;2024-02-26T00:53:31;12.70;65.10
80220;DHT22;76726;42.134;24.748;2024-02-26T00:55:57;12.70;65.00
80220;DHT22;76726;42.134;24.748;2024-02-26T00:58:27;12.70;65.20
80220;DHT22;76726;42.134;24.748;2024-02-26T01:00:53;12.80;65.20
80220;DHT22;76726;42.134;24.748;2024-02-26T01:03:19;12.90;64.70
80220;DHT22;76726;42.134;24.748;2024-02-26T01:05:45;12.90;65.00
80220;DHT22;76726;42.134;24.748;2024-02-26T01:08:11;12.80;65.60
80220;DHT22;76726;42.134;24.748;2024-02-26T01:10:37;12.80;65.90
80220;DHT22;76726;42.134;24.748;2024-02-26T01:13:02;12.90;65.40
80220;DHT22;76726;42.134;24.748;2024-02-26T01:15:28;12.70;65.70
80220;DHT22;76726;42.134;24.748;2024-02-26T01:17:54;12.50;66.50
80220;DHT22;76726;42.134;24.748;2024-02-26T01:20:20;12.40;67.30
80220;DHT22;76726;42.134;24.748;2024-02-26T01:22:46;12.50;67.30
80220;DHT22;76726;42.134;24.748;2024-02-26T01:25:12;12.30;67.60
80220;DHT22;76726;42.134;24.748;2024-02-26T01:27:38;12.40;67.70
80220;DHT22;76726;42.134;24.748;2024-02-26T01:30:06;12.50;67.50
80220;DHT22;76726;42.134;24.748;2024-02-26T01:32:32;12.60;67.00
80220;DHT22;76726;42.134;24.748;2024-02-26T01:34:58;12.70;66.50
80220;DHT22;76726;42.134;24.748;2024-02-26T01:37:24;12.80;66.30
80220;DHT22;76726;42.134;24.748;2024-02-26T01:39:50;12.90;65.70
80220;DHT22;76726;42.134;24.748;2024-02-26T01:42:16;13.00;65.30
80220;DHT22;76726;42.134;24.748;2024-02-26T01:44:42;12.80;65.80
80220;DHT22;76726;42.134;24.748;2024-02-26T01:47:10;12.60;66.50
80220;DHT22;76726;42.134;24.748;2024-02-26T01:49:37;12.40;67.30
80220;DHT22;76726;42.134;24.748;2024-02-26T01:52:04;12.40;67.50
80220;DHT22;76726;42.134;24.748;2024-02-26T01:54:31;12.40;67.40
80220;DHT22;76726;42.134;24.748;2024-02-26T01:56:59;12.40;67.30
80220;DHT22;76726;42.134;24.748;2024-02-26T01:59:25;12.50;66.90
80220;DHT22;76726;42.134;24.748;2024-02-26T02:01:52;12.50;66.50
80220;DHT22;76726;42.134;24.748;2024-02-26T02:04:20;12.50;66.20
80220;DHT22;76726;42.134;24.748;2024-02-26T02:06:47;12.50;66.20
80220;DHT22;76726;42.134;24.748;2024-02-26T02:09:13;12.60;65.80
80220;DHT22;76726;42.134;24.748;2024-02-26T02:11:39;12.60;65.30
80220;DHT22;76726;42.134;24.748;2024-02-26T02:14:05;12.60;65.20
80220;DHT22;76726;42.134;24.748;2024-02-26T02:16:31;12.60;65.30
80220;DHT22;76726;42.134;24.748;2024-02-26T02:18:58;12.50;65.50
80220;DHT22;76726;42.134;24.748;2024-02-26T02:21:23;12.50;65.90
80220;DHT22;76726;42.134;24.748;2024-02-26T02:23:49;12.50;65.50
80220;DHT22;76726;42.134;24.748;2024-02-26T02:26:16;12.60;65.60
80220;DHT22;76726;42.134;24.748;2024-02-26T02:28:42;12.60;65.70
80220;DHT22;76726;42.134;24.748;2024-02-26T02:31:08;12.60;65.70
80220;DHT22;76726;42.134;24.748;2024-02-26T02:33:34;12.60;65.90
80220;DHT22;76726;42.134;24.748;2024-02-26T02:36:00;12.50;65.90
80220;DHT22;76726;42.134;24.748;2024-02-26T02:38:26;12.60;65.50
80220;DHT22;76726;42.134;24.748;2024-02-26T02:40:55;12.70;65.10
80220;DHT22;76726;42.134;24.748;2024-02-26T02:43:21;12.70;65.40
80220;DHT22;76726;42.134;24.748;2024-02-26T02:45:47;12.60;65.60
80220;DHT22;76726;42.134;24.748;2024-02-26T02:48:13;12.50;65.80
80220;DHT22;76726;42.134;24.748;2024-02-26T02:50:39;12.50;65.80
80220;DHT22;76726;42.134;24.748;2024-02-26T02:53:05;12.50;65.80
80220;DHT22;76726;42.134;24.748;2024-02-26T02:55:31;12.50;65.80
80220;DHT22;76726;42.134;24.748;2024-02-26T02:57:56;12.50;65.80
80220;DHT22;76726;42.134;24.748;2024-02-26T03:00:22;12.50;65.90
80220;DHT22;76726;42.134;24.748;2024-02-26T03:02:50;12.50;65.80
80220;DHT22;76726;42.134;24.748;2024-02-26T03:05:16;12.50;65.90
80220;DHT22;76726;42.134;24.748;2024-02-26T03:07:42;12.50;66.00
80220;DHT22;76726;42.134;24.748;2024-02-26T03:10:08;12.50;66.00
80220;DHT22;76726;42.134;24.748;2024-02-26T03:12:34;12.50;66.00
80220;DHT22;76726;42.134;24.748;2024-02-26T03:15:00;12.50;65.80
80220;DHT22;76726;42.134;24.748;2024-02-26T03:17:30;12.50;65.70
80220;DHT22;76726;42.134;24.748;2024-02-26T03:19:56;12.60;65.20
80220;DHT22;76726;42.134;24.748;2024-02-26T03:22:22;12.60;65.30
80220;DHT22;76726;42.134;24.748;2024-02-26T03:24:48;12.50;65.50
80220;DHT22;76726;42.134;24.748;2024-02-26T03:27:14;12.60;65.60
80220;DHT22;76726;42.134;24.748;2024-02-26T03:29:41;12.60;65.60
80220;DHT22;76726;42.134;24.748;2024-02-26T03:32:07;12.60;65.40
80220;DHT22;76726;42.134;24.748;2024-02-26T03:34:33;12.60;65.40
80220;DHT22;76726;42.134;24.748;2024-02-26T03:37:02;12.60;65.50
80220;DHT22;76726;42.134;24.748;2024-02-26T03:39:28;12.60;65.70
80220;DHT22;76726;42.134;24.748;2024-02-26T03:41:54;12.60;65.80
80220;DHT22;76726;42.134;24.748;2024-02-26T03:44:20;12.60;65.90
80220;DHT22;76726;42.134;24.748;2024-02-26T03:46:45;12.60;65.90
80220;DHT22;76726;42.134;24.748;2024-02-26T03:49:12;12.60;66.00
80220;DHT22;76726;42.134;24.748;2024-02-26T03:51:39;12.60;66.10
80220;DHT22;76726;42.134;24.748;2024-02-26T03:54:05;12.60;65.90
80220;DHT22;76726;42.134;24.748;2024-02-26T03:56:31;12.60;65.80
80220;DHT22;76726;42.134;24.748;2024-02-26T03:58:56;12.60;65.90
80220;DHT22;76726;42.134;24.748;2024-02-26T04:01:23;12.60;65.90
80220;DHT22;76726;42.134;24.748;2024-02-26T04:03:49;12.70;65.80
80220;DHT22;76726;42.134;24.748;2024-02-26T04:06:15;12.60;65.60
80220;DHT22;76726;42.134;24.748;2024-02-26T04:08:43;12.60;65.70
80220;DHT22;76726;42.134;24.748;2024-02-26T04:11:09;12.70;65.60
80220;DHT22;76726;42.134;24.748;2024-02-26T04:13:35;12.70;65.60
80220;DHT22;76726;42.134;24.748;2024-02-26T04:16:04;12.70;65.60
80220;DHT22;76726;42.134;24.748;2024-02-26T04:18:30;12.70;65.60
80220;DHT22;76726;42.134;24.748;2024-02-26T04:20:56;12.70;65.40
80220;DHT22;76726;42.134;24.748;2024-02-26T04:23:22;12.70;65.20
80220;DHT22;76726;42.134;24.748;2024-02-26T04:25:48;12.70;65.30
80220;DHT22;76726;42.134;24.748;2024-02-26T04:28:14;12.70;65.40
80220;DHT22;76726;42.134;24.748;2024-02-26T04:30:40;12.70;65.30
80220;DHT22;76726;42.134;24.748;2024-02-26T04:33:06;12.70;65.00
80220;DHT22;76726;42.134;24.748;2024-02-26T04:35:32;12.70;64.50
80220;DHT22;76726;42.134;24.748;2024-02-26T04:37:58;12.70;64.10
80220;DHT22;76726;42.134;24.748;2024-02-26T04:40:24;12.60;63.70
80220;DHT22;76726;42.134;24.748;2024-02-26T04:42:50;12.60;63.50
80220;DHT22;76726;42.134;24.748;2024-02-26T04:45:16;12.60;63.50
80220;DHT22;76726;42.134;24.748;2024-02-26T04:47:42;12.50;63.50
80220;DHT22;76726;42.134;24.748;2024-02-26T04:50:07;12.50;63.60
80220;DHT22;76726;42.134;24.748;2024-02-26T04:52:33;12.50;63.40
80220;DHT22;76726;42.134;24.748;2024-02-26T04:54:59;12.50;63.20
80220;DHT22;76726;42.134;24.748;2024-02-26T04:57:25;12.50;63.10
80220;DHT22;76726;42.134;24.748;2024-02-26T04:59:51;12.60;63.10
80220;DHT22;76726;42.134;24.748;2024-02-26T05:02:17;12.60;63.00
80220;DHT22;76726;42.134;24.748;2024-02-26T05:04:43;12.60;62.70
80220;DHT22;76726;42.134;24.748;2024-02-26T05:07:09;12.60;62.70
80220;DHT22;76726;42.134;24.748;2024-02-26T05:09:35;12.60;62.70
80220;DHT22;76726;42.134;24.748;2024-02-26T05:12:01;12.50;62.90
80220;DHT22;76726;42.134;24.748;2024-02-26T05:14:27;12.60;63.10
80220;DHT22;76726;42.134;24.748;2024-02-26T05:16:53;12.60;63.00
80220;DHT22;76726;42.134;24.748;2024-02-26T05:19:19;12.60;62.90
80220;DHT22;76726;42.134;24.748;2024-02-26T05:21:45;12.60;62.80
80220;DHT22;76726;42.134;24.748;2024-02-26T05:24:13;12.60;62.60
80220;DHT22;76726;42.134;24.748;2024-02-26T05:26:41;12.70;62.40
80220;DHT22;76726;42.134;24.748;2024-02-26T05:29:07;12.70;63.30
80220;DHT22;76726;42.134;24.748;2024-02-26T05:31:33;12.70;62.60
80220;DHT22;76726;42.134;24.748;2024-02-26T05:33:59;12.70;62.70
80220;DHT22;76726;42.134;24.748;2024-02-26T05:36:25;12.70;62.60
80220;DHT22;76726;42.134;24.748;2024-02-26T05:38:51;12.70;62.50
80220;DHT22;76726;42.134;24.748;2024-02-26T05:41:17;12.80;62.40
80220;DHT22;76726;42.134;24.748;2024-02-26T05:43:52;12.80;62.40
80220;DHT22;76726;42.134;24.748;2024-02-26T05:46:18;12.80;62.30
80220;DHT22;76726;42.134;24.748;2024-02-26T05:48:46;12.80;62.40
80220;DHT22;76726;42.134;24.748;2024-02-26T05:51:13;12.90;62.30
80220;DHT22;76726;42.134;24.748;2024-02-26T05:53:38;12.90;62.90
80220;DHT22;76726;42.134;24.748;2024-02-26T05:56:05;13.00;61.70
80220;DHT22;76726;42.134;24.748;2024-02-26T05:58:31;13.10;61.60
80220;DHT22;76726;42.134;24.748;2024-02-26T06:00:57;13.10;61.70
80220;DHT22;76726;42.134;24.748;2024-02-26T06:03:23;13.10;61.50
80220;DHT22;76726;42.134;24.748;2024-02-26T06:05:49;13.20;61.60
80220;DHT22;76726;42.134;24.748;2024-02-26T06:08:15;13.20;61.40
80220;DHT22;76726;42.134;24.748;2024-02-26T06:10:41;13.20;61.20
80220;DHT22;76726;42.134;24.748;2024-02-26T06:13:07;13.30;61.10
80220;DHT22;76726;42.134;24.748;2024-02-26T06:15:33;13.40;60.90
80220;DHT22;76726;42.134;24.748;2024-02-26T06:17:59;13.50;60.80
80220;DHT22;76726;42.134;24.748;2024-02-26T06:20:25;13.50;60.50
80220;DHT22;76726;42.134;24.748;2024-02-26T06:22:51;13.60;60.40
80220;DHT22;76726;42.134;24.748;2024-02-26T06:25:17;13.60;60.00
80220;DHT22;76726;42.134;24.748;2024-02-26T06:27:42;13.70;59.80
80220;DHT22;76726;42.134;24.748;2024-02-26T06:30:08;13.80;59.70
80220;DHT22;76726;42.134;24.748;2024-02-26T06:32:37;13.90;59.40
80220;DHT22;76726;42.134;24.748;2024-02-26T06:35:03;13.90;59.30
80220;DHT22;76726;42.134;24.748;2024-02-26T06:37:33;14.00;59.10
80220;DHT22;76726;42.134;24.748;2024-02-26T06:40:00;14.00;59.00
80220;DHT22;76726;42.134;24.748;2024-02-26T06:42:26;14.10;58.60
80220;DHT22;76726;42.134;24.748;2024-02-26T06:44:52;14.10;58.30
80220;DHT22;76726;42.134;24.748;2024-02-26T06:47:17;14.20;58.40
80220;DHT22;76726;42.134;24.748;2024-02-26T06:49:45;14.20;58.40
80220;DHT22;76726;42.134;24.748;2024-02-26T06:52:11;14.20;58.40
80220;DHT22;76726;42.134;24.748;2024-02-26T06:54:37;14.30;58.30
80220;DHT22;76726;42.134;24.748;2024-02-26T06:57:03;14.40;58.10
80220;DHT22;76726;42.134;24.748;2024-02-26T06:59:29;14.40;57.90
80220;DHT22;76726;42.134;24.748;2024-02-26T07:01:55;14.40;57.90
80220;DHT22;76726;42.134;24.748;2024-02-26T07:04:21;14.50;57.70
80220;DHT22;76726;42.134;24.748;2024-02-26T07:06:47;14.60;57.50
80220;DHT22;76726;42.134;24.748;2024-02-26T07:09:13;14.60;57.50
80220;DHT22;76726;42.134;24.748;2024-02-26T07:11:39;14.60;57.50
80220;DHT22;76726;42.134;24.748;2024-02-26T07:14:08;14.70;57.20
80220;DHT22;76726;42.134;24.748;2024-02-26T07:16:34;14.70;57.40
80220;DHT22;76726;42.134;24.748;2024-02-26T07:19:00;14.70;57.50
80220;DHT22;76726;42.134;24.748;2024-02-26T07:21:27;14.70;57.50
80220;DHT22;76726;42.134;24.748;2024-02-26T07:23:53;14.70;57.40
80220;DHT22;76726;42.134;24.748;2024-02-26T07:26:22;14.80;57.10
80220;DHT22;76726;42.134;24.748;2024-02-26T07:28:58;14.80;56.80
80220;DHT22;76726;42.134;24.748;2024-02-26T07:31:24;14.80;57.70
80220;DHT22;76726;42.134;24.748;2024-02-26T07:33:50;14.80;57.90
80220;DHT22;76726;42.134;24.748;2024-02-26T07:36:16;14.70;57.00
80220;DHT22;76726;42.134;24.748;2024-02-26T07:38:42;14.80;56.80
80220;DHT22;76726;42.134;24.748;2024-02-26T07:41:08;14.80;56.60
80220;DHT22;76726;42.134;24.748;2024-02-26T07:43:34;14.90;56.50
80220;DHT22;76726;42.134;24.748;2024-02-26T07:46:00;14.90;56.50
80220;DHT22;76726;42.134;24.748;2024-02-26T07:48:26;14.90;56.30
80220;DHT22;76726;42.134;24.748;2024-02-26T07:50:52;15.00;56.30
80220;DHT22;76726;42.134;24.748;2024-02-26T07:53:18;15.10;56.00
80220;DHT22;76726;42.134;24.748;2024-02-26T07:55:45;15.10;55.90
80220;DHT22;76726;42.134;24.748;2024-02-26T07:58:11;15.30;55.60
80220;DHT22;76726;42.134;24.748;2024-02-26T08:00:37;15.30;55.30
80220;DHT22;76726;42.134;24.748;2024-02-26T08:03:03;15.40;55.00
80220;DHT22;76726;42.134;24.748;2024-02-26T08:05:29;15.50;54.80
80220;DHT22;76726;42.134;24.748;2024-02-26T08:07:55;15.60;54.70
80220;DHT22;76726;42.134;24.748;2024-02-26T08:10:22;15.70;54.30
80220;DHT22;76726;42.134;24.748;2024-02-26T08:12:48;15.80;54.00
80220;DHT22;76726;42.134;24.748;2024-02-26T08:15:14;15.90;53.80
80220;DHT22;76726;42.134;24.748;2024-02-26T08:17:39;16.00;53.40
80220;DHT22;76726;42.134;24.748;2024-02-26T08:20:05;16.10;53.00
80220;DHT22;76726;42.134;24.748;2024-02-26T08:22:31;16.20;52.60
80220;DHT22;76726;42.134;24.748;2024-02-26T08:24:59;16.30;52.50
80220;DHT22;76726;42.134;24.748;2024-02-26T08:27:25;16.40;51.80
80220;DHT22;76726;42.134;24.748;2024-02-26T08:29:52;16.60;51.40
80220;DHT22;76726;42.134;24.748;2024-02-26T08:32:18;16.70;50.90
80220;DHT22;76726;42.134;24.748;2024-02-26T08:34:45;16.70;50.60
80220;DHT22;76726;42.134;24.748;2024-02-26T08:37:11;16.80;50.50
80220;DHT22;76726;42.134;24.748;2024-02-26T08:39:37;16.90;50.30
80220;DHT22;76726;42.134;24.748;2024-02-26T08:42:04;17.00;49.80
80220;DHT22;76726;42.134;24.748;2024-02-26T08:44:30;17.00;49.70
80220;DHT22;76726;42.134;24.748;2024-02-26T08:46:55;17.00;49.70
80220;DHT22;76726;42.134;24.748;2024-02-26T08:49:21;17.10;49.50
80220;DHT22;76726;42.134;24.748;2024-02-26T08:51:50;17.20;49.20
80220;DHT22;76726;42.134;24.748;2024-02-26T08:54:16;17.30;48.90
80220;DHT22;76726;42.134;24.748;2024-02-26T08:56:42;17.30;48.80
80220;DHT22;76726;42.134;24.748;2024-02-26T08:59:07;17.40;48.60
80220;DHT22;76726;42.134;24.748;2024-02-26T09:01:33;17.50;48.40
80220;DHT22;76726;42.134;24.748;2024-02-26T09:03:59;17.60;48.10
80220;DHT22;76726;42.134;24.748;2024-02-26T09:06:25;17.70;47.70
80220;DHT22;76726;42.134;24.748;2024-02-26T09:08:52;17.80;47.40
80220;DHT22;76726;42.134;24.748;2024-02-26T09:11:18;17.80;47.10
80220;DHT22;76726;42.134;24.748;2024-02-26T09:13:44;17.90;47.00
80220;DHT22;76726;42.134;24.748;2024-02-26T09:16:11;17.90;47.20
80220;DHT22;76726;42.134;24.748;2024-02-26T09:18:37;18.00;47.30
80220;DHT22;76726;42.134;24.748;2024-02-26T09:21:06;18.10;47.20
80220;DHT22;76726;42.134;24.748;2024-02-26T09:23:32;18.00;47.40
80220;DHT22;76726;42.134;24.748;2024-02-26T09:25:58;18.00;47.30
80220;DHT22;76726;42.134;24.748;2024-02-26T09:28:24;18.00;47.10
80220;DHT22;76726;42.134;24.748;2024-02-26T09:30:50;18.00;47.00
80220;DHT22;76726;42.134;24.748;2024-02-26T09:33:17;18.00;47.00
80220;DHT22;76726;42.134;24.748;2024-02-26T09:35:43;18.00;47.00
80220;DHT22;76726;42.134;24.748;2024-02-26T09:38:09;18.00;46.80
80220;DHT22;76726;42.134;24.748;2024-02-26T09:40:35;18.00;46.90
80220;DHT22;76726;42.134;24.748;2024-02-26T09:43:01;18.00;46.60
80220;DHT22;76726;42.134;24.748;2024-02-26T09:45:30;18.10;46.40
80220;DHT22;76726;42.134;24.748;2024-02-26T09:47:56;18.20;46.10
80220;DHT22;76726;42.134;24.748;2024-02-26T09:50:22;18.30;46.00
80220;DHT22;76726;42.134;24.748;2024-02-26T09:52:51;18.40;45.60
80220;DHT22;76726;42.134;24.748;2024-02-26T09:55:19;18.40;46.00
80220;DHT22;76726;42.134;24.748;2024-02-26T09:57:45;18.50;46.20
80220;DHT22;76726;42.134;24.748;2024-02-26T10:00:14;18.60;45.60
80220;DHT22;76726;42.134;24.748;2024-02-26T10:02:41;18.60;45.70
80220;DHT22;76726;42.134;24.748;2024-02-26T10:05:07;18.60;45.60
80220;DHT22;76726;42.134;24.748;2024-02-26T10:07:37;18.60;45.70
80220;DHT22;76726;42.134;24.748;2024-02-26T10:10:03;18.80;45.30
80220;DHT22;76726;42.134;24.748;2024-02-26T10:12:30;19.00;44.60
80220;DHT22;76726;42.134;24.748;2024-02-26T10:14:56;19.10;44.30
80220;DHT22;76726;42.134;24.748;2024-02-26T10:17:23;19.20;44.20
80220;DHT22;76726;42.134;24.748;2024-02-26T10:19:49;19.40;43.40
80220;DHT22;76726;42.134;24.748;2024-02-26T10:22:17;19.60;43.00
80220;DHT22;76726;42.134;24.748;2024-02-26T10:24:43;19.60;43.10
80220;DHT22;76726;42.134;24.748;2024-02-26T10:27:09;19.60;43.00
80220;DHT22;76726;42.134;24.748;2024-02-26T10:29:35;19.60;42.60
80220;DHT22;76726;42.134;24.748;2024-02-26T10:32:01;19.70;42.40
80220;DHT22;76726;42.134;24.748;2024-02-26T10:34:27;19.70;42.40
80220;DHT22;76726;42.134;24.748;2024-02-26T10:36:53;19.80;42.30
80220;DHT22;76726;42.134;24.748;2024-02-26T10:39:19;19.90;41.90
80220;DHT22;76726;42.134;24.748;2024-02-26T10:41:46;20.00;41.70
80220;DHT22;76726;42.134;24.748;2024-02-26T10:44:12;20.10;41.70
80220;DHT22;76726;42.134;24.748;2024-02-26T10:46:40;20.30;41.40
80220;DHT22;76726;42.134;24.748;2024-02-26T10:49:10;20.40;40.80
80220;DHT22;76726;42.134;24.748;2024-02-26T10:51:44;20.50;40.70
80220;DHT22;76726;42.134;24.748;2024-02-26T10:54:10;20.50;40.30
80220;DHT22;76726;42.134;24.748;2024-02-26T10:56:38;20.50;40.00
80220;DHT22;76726;42.134;24.748;2024-02-26T10:59:07;20.60;39.70
80220;DHT22;76726;42.134;24.748;2024-02-26T11:01:33;20.70;39.20
80220;DHT22;76726;42.134;24.748;2024-02-26T11:04:02;20.90;38.80
80220;DHT22;76726;42.134;24.748;2024-02-26T11:06:28;21.10;38.40
80220;DHT22;76726;42.134;24.748;2024-02-26T11:08:55;21.30;37.70
80220;DHT22;76726;42.134;24.748;2024-02-26T11:11:22;21.20;37.00
80220;DHT22;76726;42.134;24.748;2024-02-26T11:13:48;21.30;36.90
80220;DHT22;76726;42.134;24.748;2024-02-26T11:16:19;21.40;36.80
80220;DHT22;76726;42.134;24.748;2024-02-26T11:18:46;21.50;36.60
80220;DHT22;76726;42.134;24.748;2024-02-26T11:21:16;21.40;37.50
80220;DHT22;76726;42.134;24.748;2024-02-26T11:23:45;21.40;36.70
80220;DHT22;76726;42.134;24.748;2024-02-26T11:26:12;21.60;36.70
80220;DHT22;76726;42.134;24.748;2024-02-26T11:28:39;21.80;36.30
80220;DHT22;76726;42.134;24.748;2024-02-26T11:31:05;21.80;35.80
80220;DHT22;76726;42.134;24.748;2024-02-26T11:33:33;21.70;35.80
80220;DHT22;76726;42.134;24.748;2024-02-26T11:36:08;21.80;35.90
80220;DHT22;76726;42.134;24.748;2024-02-26T11:38:35;21.70;36.10
80220;DHT22;76726;42.134;24.748;2024-02-26T11:41:01;21.70;36.40
80220;DHT22;76726;42.134;24.748;2024-02-26T11:46:30;21.80;36.10
80220;DHT22;76726;42.134;24.748;2024-02-26T11:51:33;21.90;36.10
80220;DHT22;76726;42.134;24.748;2024-02-26T11:54:00;21.80;36.10
80220;DHT22;76726;42.134;24.748;2024-02-26T11:56:26;21.70;36.10
80220;DHT22;76726;42.134;24.748;2024-02-26T11:58:59;21.80;35.90
80220;DHT22;76726;42.134;24.748;2024-02-26T12:04:07;21.90;35.90
80220;DHT22;76726;42.134;24.748;2024-02-26T12:06:46;21.90;35.80
80220;DHT22;76726;42.134;24.748;2024-02-26T12:09:12;21.90;35.80
80220;DHT22;76726;42.134;24.748;2024-02-26T12:11:40;21.90;35.60
80220;DHT22;76726;42.134;24.748;2024-02-26T12:14:07;21.80;36.40
80220;DHT22;76726;42.134;24.748;2024-02-26T12:16:34;21.80;35.90
80220;DHT22;76726;42.134;24.748;2024-02-26T12:19:06;21.70;36.00
80220;DHT22;76726;42.134;24.748;2024-02-26T12:21:35;21.70;36.00
80220;DHT22;76726;42.134;24.748;2024-02-26T12:24:12;21.70;35.90
80220;DHT22;76726;42.134;24.748;2024-02-26T12:26:39;21.80;35.80
80220;DHT22;76726;42.134;24.748;2024-02-26T12:29:06;22.20;35.40
80220;DHT22;76726;42.134;24.748;2024-02-26T12:31:32;23.30;33.80
80220;DHT22;76726;42.134;24.748;2024-02-26T12:33:59;24.70;31.40
80220;DHT22;76726;42.134;24.748;2024-02-26T12:36:26;25.30;30.30
80220;DHT22;76726;42.134;24.748;2024-02-26T12:38:52;25.40;30.20
80220;DHT22;76726;42.134;24.748;2024-02-26T12:41:18;25.30;30.30
80220;DHT22;76726;42.134;24.748;2024-02-26T12:43:45;25.00;30.60
80220;DHT22;76726;42.134;24.748;2024-02-26T12:46:11;24.60;31.00
80220;DHT22;76726;42.134;24.748;2024-02-26T12:48:44;24.40;31.50
80220;DHT22;76726;42.134;24.748;2024-02-26T12:51:13;24.40;31.50
80220;DHT22;76726;42.134;24.748;2024-02-26T12:53:40;24.30;31.40
80220;DHT22;76726;42.134;24.748;2024-02-26T12:56:10;24.30;31.50
80220;DHT22;76726;42.134;24.748;2024-02-26T12:58:36;24.40;31.40
80220;DHT22;76726;42.134;24.748;2024-02-26T13:01:04;24.10;31.60
80220;DHT22;76726;42.134;24.748;2024-02-26T13:03:31;23.80;32.30
80220;DHT22;76726;42.134;24.748;2024-02-26T13:05:57;23.40;32.60
80220;DHT22;76726;42.134;24.748;2024-02-26T13:08:24;23.40;32.80
80220;DHT22;76726;42.134;24.748;2024-02-26T13:10:50;23.20;33.10
80220;DHT22;76726;42.134;24.748;2024-02-26T13:13:19;23.10;33.60
80220;DHT22;76726;42.134;24.748;2024-02-26T13:15:45;23.00;33.80
80220;DHT22;76726;42.134;24.748;2024-02-26T13:18:12;22.90;33.90
80220;DHT22;76726;42.134;24.748;2024-02-26T13:20:40;22.90;33.90
80220;DHT22;76726;42.134;24.748;2024-02-26T13:23:07;23.00;34.80
80220;DHT22;76726;42.134;24.748;2024-02-26T13:25:33;23.00;33.80
80220;DHT22;76726;42.134;24.748;2024-02-26T13:28:16;22.90;34.90
80220;DHT22;76726;42.134;24.748;2024-02-26T13:30:52;22.90;33.90
80220;DHT22;76726;42.134;24.748;2024-02-26T13:33:18;22.80;34.10
80220;DHT22;76726;42.134;24.748;2024-02-26T13:35:44;22.80;34.10
80220;DHT22;76726;42.134;24.748;2024-02-26T13:38:10;22.80;34.10
80220;DHT22;76726;42.134;24.748;2024-02-26T13:40:37;22.60;34.40
80220;DHT22;76726;42.134;24.748;2024-02-26T13:43:04;22.50;34.80
80220;DHT22;76726;42.134;24.748;2024-02-26T13:45:31;22.40;34.80
80220;DHT22;76726;42.134;24.748;2024-02-26T13:48:01;22.30;34.90
80220;DHT22;76726;42.134;24.748;2024-02-26T13:50:27;22.30;34.90
80220;DHT22;76726;42.134;24.748;2024-02-26T13:52:53;22.30;35.10
80220;DHT22;76726;42.134;24.748;2024-02-26T13:55:21;22.20;35.30
80220;DHT22;76726;42.134;24.748;2024-02-26T13:57:49;22.10;35.50
80220;DHT22;76726;42.134;24.748;2024-02-26T14:00:19;22.10;35.50
80220;DHT22;76726;42.134;24.748;2024-02-26T14:02:45;22.10;35.50
80220;DHT22;76726;42.134;24.748;2024-02-26T14:05:11;22.10;35.70
80220;DHT22;76726;42.134;24.748;2024-02-26T14:07:37;22.00;35.70
80220;DHT22;76726;42.134;24.748;2024-02-26T14:10:03;21.90;35.80
80220;DHT22;76726;42.134;24.748;2024-02-26T14:12:29;21.80;36.20
80220;DHT22;76726;42.134;24.748;2024-02-26T14:14:55;21.60;36.50
80220;DHT22;76726;42.134;24.748;2024-02-26T14:17:21;21.50;36.80
80220;DHT22;76726;42.134;24.748;2024-02-26T14:19:48;21.30;37.00
80220;DHT22;76726;42.134;24.748;2024-02-26T14:22:14;21.30;37.30
80220;DHT22;76726;42.134;24.748;2024-02-26T14:24:41;21.10;37.20
80220;DHT22;76726;42.134;24.748;2024-02-26T14:27:09;20.90;37.40
80220;DHT22;76726;42.134;24.748;2024-02-26T14:29:35;20.80;38.00
80220;DHT22;76726;42.134;24.748;2024-02-26T14:32:03;20.60;38.40
80220;DHT22;76726;42.134;24.748;2024-02-26T14:34:29;20.50;37.80
80220;DHT22;76726;42.134;24.748;2024-02-26T14:36:56;20.40;37.20
80220;DHT22;76726;42.134;24.748;2024-02-26T14:39:24;20.30;36.90
80220;DHT22;76726;42.134;24.748;2024-02-26T14:41:50;20.30;36.70
80220;DHT22;76726;42.134;24.748;2024-02-26T14:44:16;20.20;36.80
80220;DHT22;76726;42.134;24.748;2024-02-26T14:46:42;20.10;37.00
80220;DHT22;76726;42.134;24.748;2024-02-26T14:49:08;20.00;37.30
80220;DHT22;76726;42.134;24.748;2024-02-26T14:51:34;20.10;37.50
80220;DHT22;76726;42.134;24.748;2024-02-26T14:54:00;20.10;37.50
80220;DHT22;76726;42.134;24.748;2024-02-26T14:56:27;20.10;37.60
80220;DHT22;76726;42.134;24.748;2024-02-26T14:58:53;20.00;38.10
80220;DHT22;76726;42.134;24.748;2024-02-26T15:01:19;19.90;38.20
80220;DHT22;76726;42.134;24.748;2024-02-26T15:03:45;19.80;38.40
80220;DHT22;76726;42.134;24.748;2024-02-26T15:06:11;19.70;38.50
80220;DHT22;76726;42.134;24.748;2024-02-26T15:08:37;19.70;38.60
80220;DHT22;76726;42.134;24.748;2024-02-26T15:11:03;19.50;39.00
80220;DHT22;76726;42.134;24.748;2024-02-26T15:13:29;19.40;39.30
80220;DHT22;76726;42.134;24.748;2024-02-26T15:15:55;19.40;39.50
80220;DHT22;76726;42.134;24.748;2024-02-26T15:18:21;19.30;39.40
80220;DHT22;76726;42.134;24.748;2024-02-26T15:20:47;19.20;39.60